Sherwood Forest, MD (21405)

6:36 AM EDT on September 04, 2015 (GMT -0400)
Beehive Beach | | Change Station
CLOSE
Current Station
Personal Weather Station
Location: Annapolis, MD
Elevation: 26 ft
Nearby Weather Stations

Elev 26 ft 39.03 °N, 76.57 °W | Updated 23 seconds ago

Clear
Clear
70.5 °F
Feels Like 70.5 °F
N
0.0
Wind Variable Wind from SW
Gusts 0.0 mph

Today
High -- | Low -- °F
--% Chance of Precip.
Yesterday
High -- | Low -- °F
Precip. -- in
6:37 AM 7:32 PM
Waning Gibbous, 61% visible
Pressure 29.93 in
Visibility 7.0 miles
Clouds Clear
Dew Point 70 °F
Humidity 98%
Rainfall 0.00 in
Snow Depth Not available.
UV 0 out of 12
Pollen 10.10 out of 12
Air Quality Not available.
Flu Activity Not available.
METAR KNAK 040954Z AUTO 35004KT 7SM CLR 25/22 A2992 RMK AO2 SLP133 T02500217
Pressure 29.93 in
Visibility 7.0 miles
Clouds Clear
Dew Point 70 °F
Humidity 98%
Rainfall 0.00 in
Snow Depth Not available.
UV 0 out of 12
Pollen 10.10 out of 12
Air Quality Not available.
Flu Activity Not available.
METAR KNAK 040954Z AUTO 35004KT 7SM CLR 25/22 A2992 RMK AO2 SLP133 T02500217

10-Day Weather Forecast

×

Almanac

Astronomy

Sep. 04, 2015 Rise Set
Actual Time
Civil Twilight
Nautical Twilight
Astronomical Twilight
Moon
Length of Visible Light
Length of Day
Tomorrow will be .
, % of the Moon is Illuminated

Today's Extremes

State Highs State Lows

Community

WunderPhotos

Upload Photos

1,852,146 photos uploaded!

WunderBlogs® & News

Nearby

Air Quality

  Air Quality AQ Index Pollutant
Not available.

Snow Depth

Station Depth Elevation

Earthquake Activity

City Distance Mag. Time & Date
Minimum magnitude displayed is 2.5.

Coastal Water Temperatures

Place Temperature

Stations

Nearby Weather Stations

Station Location Temp. Windchill Dew Point Humidity Wind Precip. Elev Updated Type